sensor_id;sensor_type;location;lat;lon;timestamp;P1;durP1;ratioP1;P2;durP2;ratioP2
74660;SDS011;63191;39.566;2.654;2023-08-06T00:00:27;5.40;;;1.50;;
74660;SDS011;63191;39.566;2.654;2023-08-06T00:02:53;4.90;;;1.60;;
74660;SDS011;63191;39.566;2.654;2023-08-06T00:05:19;4.40;;;1.20;;
74660;SDS011;63191;39.566;2.654;2023-08-06T00:07:50;4.20;;;1.20;;
74660;SDS011;63191;39.566;2.654;2023-08-06T00:10:17;3.80;;;1.00;;
74660;SDS011;63191;39.566;2.654;2023-08-06T00:12:43;4.80;;;1.10;;
74660;SDS011;63191;39.566;2.654;2023-08-06T00:15:10;6.90;;;1.20;;
74660;SDS011;63191;39.566;2.654;2023-08-06T00:17:36;4.40;;;1.10;;
74660;SDS011;63191;39.566;2.654;2023-08-06T00:20:04;3.10;;;0.80;;
74660;SDS011;63191;39.566;2.654;2023-08-06T00:22:35;3.80;;;1.30;;
74660;SDS011;63191;39.566;2.654;2023-08-06T00:25:03;4.50;;;1.20;;
74660;SDS011;63191;39.566;2.654;2023-08-06T00:27:30;4.90;;;1.00;;
74660;SDS011;63191;39.566;2.654;2023-08-06T00:29:56;4.40;;;1.00;;
74660;SDS011;63191;39.566;2.654;2023-08-06T00:32:22;4.90;;;1.10;;
74660;SDS011;63191;39.566;2.654;2023-08-06T00:34:48;3.30;;;1.00;;
74660;SDS011;63191;39.566;2.654;2023-08-06T00:37:17;2.90;;;0.90;;
74660;SDS011;63191;39.566;2.654;2023-08-06T00:39:43;3.70;;;1.10;;
74660;SDS011;63191;39.566;2.654;2023-08-06T00:42:10;4.20;;;1.10;;
74660;SDS011;63191;39.566;2.654;2023-08-06T00:44:37;3.60;;;1.00;;
74660;SDS011;63191;39.566;2.654;2023-08-06T00:47:03;3.80;;;1.00;;
74660;SDS011;63191;39.566;2.654;2023-08-06T00:49:29;4.70;;;1.10;;
74660;SDS011;63191;39.566;2.654;2023-08-06T00:51:56;5.80;;;1.00;;
74660;SDS011;63191;39.566;2.654;2023-08-06T00:54:23;5.80;;;1.10;;
74660;SDS011;63191;39.566;2.654;2023-08-06T00:56:49;3.80;;;0.80;;
74660;SDS011;63191;39.566;2.654;2023-08-06T00:59:15;4.40;;;0.90;;
74660;SDS011;63191;39.566;2.654;2023-08-06T01:01:40;3.80;;;1.10;;
74660;SDS011;63191;39.566;2.654;2023-08-06T01:04:07;5.30;;;1.10;;
74660;SDS011;63191;39.566;2.654;2023-08-06T01:06:39;3.70;;;0.90;;
74660;SDS011;63191;39.566;2.654;2023-08-06T01:11:59;3.90;;;1.00;;
74660;SDS011;63191;39.566;2.654;2023-08-06T01:17:19;3.60;;;0.80;;
74660;SDS011;63191;39.566;2.654;2023-08-06T01:19:45;4.40;;;1.20;;
74660;SDS011;63191;39.566;2.654;2023-08-06T01:22:11;7.00;;;1.30;;
74660;SDS011;63191;39.566;2.654;2023-08-06T01:24:37;3.70;;;1.00;;
74660;SDS011;63191;39.566;2.654;2023-08-06T01:30:01;4.60;;;1.20;;
74660;SDS011;63191;39.566;2.654;2023-08-06T01:32:49;3.80;;;1.10;;
74660;SDS011;63191;39.566;2.654;2023-08-06T01:35:19;4.90;;;0.90;;
74660;SDS011;63191;39.566;2.654;2023-08-06T01:37:45;3.60;;;1.10;;
74660;SDS011;63191;39.566;2.654;2023-08-06T01:40:13;4.80;;;1.10;;
74660;SDS011;63191;39.566;2.654;2023-08-06T01:42:39;4.60;;;1.20;;
74660;SDS011;63191;39.566;2.654;2023-08-06T01:45:09;4.10;;;1.20;;
74660;SDS011;63191;39.566;2.654;2023-08-06T01:47:35;4.60;;;1.10;;
74660;SDS011;63191;39.566;2.654;2023-08-06T01:50:02;5.10;;;1.20;;
74660;SDS011;63191;39.566;2.654;2023-08-06T01:52:28;4.60;;;1.30;;
74660;SDS011;63191;39.566;2.654;2023-08-06T01:54:54;5.30;;;1.20;;
74660;SDS011;63191;39.566;2.654;2023-08-06T01:57:20;3.30;;;0.90;;
74660;SDS011;63191;39.566;2.654;2023-08-06T01:59:46;3.50;;;1.00;;
74660;SDS011;63191;39.566;2.654;2023-08-06T02:02:12;6.50;;;1.20;;
74660;SDS011;63191;39.566;2.654;2023-08-06T02:04:38;4.60;;;1.30;;
74660;SDS011;63191;39.566;2.654;2023-08-06T02:07:04;4.50;;;1.20;;
74660;SDS011;63191;39.566;2.654;2023-08-06T02:09:30;4.50;;;1.30;;
74660;SDS011;63191;39.566;2.654;2023-08-06T02:11:55;4.30;;;1.20;;
74660;SDS011;63191;39.566;2.654;2023-08-06T02:14:21;4.50;;;1.30;;
74660;SDS011;63191;39.566;2.654;2023-08-06T02:16:47;5.10;;;1.20;;
74660;SDS011;63191;39.566;2.654;2023-08-06T02:19:13;5.30;;;1.20;;
74660;SDS011;63191;39.566;2.654;2023-08-06T02:21:38;5.00;;;1.00;;
74660;SDS011;63191;39.566;2.654;2023-08-06T02:24:04;4.80;;;1.10;;
74660;SDS011;63191;39.566;2.654;2023-08-06T02:26:30;5.30;;;1.10;;
74660;SDS011;63191;39.566;2.654;2023-08-06T02:28:56;6.90;;;1.60;;
74660;SDS011;63191;39.566;2.654;2023-08-06T02:31:21;5.20;;;1.20;;
74660;SDS011;63191;39.566;2.654;2023-08-06T02:33:47;4.60;;;1.20;;
74660;SDS011;63191;39.566;2.654;2023-08-06T02:36:13;4.40;;;1.10;;
74660;SDS011;63191;39.566;2.654;2023-08-06T02:38:39;5.50;;;1.40;;
74660;SDS011;63191;39.566;2.654;2023-08-06T02:41:04;5.00;;;1.10;;
74660;SDS011;63191;39.566;2.654;2023-08-06T02:43:31;5.10;;;1.20;;
74660;SDS011;63191;39.566;2.654;2023-08-06T02:46:00;5.40;;;1.70;;
74660;SDS011;63191;39.566;2.654;2023-08-06T02:48:26;5.50;;;1.20;;
74660;SDS011;63191;39.566;2.654;2023-08-06T02:50:52;4.60;;;1.30;;
74660;SDS011;63191;39.566;2.654;2023-08-06T02:53:18;3.90;;;1.20;;
74660;SDS011;63191;39.566;2.654;2023-08-06T02:55:47;4.70;;;1.20;;
74660;SDS011;63191;39.566;2.654;2023-08-06T02:58:16;3.90;;;1.10;;
74660;SDS011;63191;39.566;2.654;2023-08-06T03:00:43;3.80;;;1.10;;
74660;SDS011;63191;39.566;2.654;2023-08-06T03:03:09;5.00;;;1.10;;
74660;SDS011;63191;39.566;2.654;2023-08-06T03:05:35;5.40;;;1.00;;
74660;SDS011;63191;39.566;2.654;2023-08-06T03:08:01;5.20;;;1.20;;
74660;SDS011;63191;39.566;2.654;2023-08-06T03:10:26;4.50;;;1.30;;
74660;SDS011;63191;39.566;2.654;2023-08-06T03:12:52;5.80;;;1.50;;
74660;SDS011;63191;39.566;2.654;2023-08-06T03:15:18;5.20;;;1.40;;
74660;SDS011;63191;39.566;2.654;2023-08-06T03:17:44;4.70;;;1.10;;
74660;SDS011;63191;39.566;2.654;2023-08-06T03:20:10;4.70;;;1.20;;
74660;SDS011;63191;39.566;2.654;2023-08-06T03:22:36;5.10;;;1.20;;
74660;SDS011;63191;39.566;2.654;2023-08-06T03:25:02;5.60;;;1.40;;
74660;SDS011;63191;39.566;2.654;2023-08-06T03:27:29;6.00;;;1.40;;
74660;SDS011;63191;39.566;2.654;2023-08-06T03:29:54;5.10;;;1.10;;
74660;SDS011;63191;39.566;2.654;2023-08-06T03:32:20;4.60;;;1.50;;
74660;SDS011;63191;39.566;2.654;2023-08-06T03:34:46;4.80;;;1.40;;
74660;SDS011;63191;39.566;2.654;2023-08-06T03:37:12;5.20;;;1.50;;
74660;SDS011;63191;39.566;2.654;2023-08-06T03:39:38;4.70;;;1.30;;
74660;SDS011;63191;39.566;2.654;2023-08-06T03:42:04;5.20;;;1.20;;
74660;SDS011;63191;39.566;2.654;2023-08-06T03:44:30;4.90;;;1.20;;
74660;SDS011;63191;39.566;2.654;2023-08-06T03:46:56;5.20;;;1.20;;
74660;SDS011;63191;39.566;2.654;2023-08-06T03:49:21;4.90;;;1.20;;
74660;SDS011;63191;39.566;2.654;2023-08-06T03:51:47;5.20;;;1.40;;
74660;SDS011;63191;39.566;2.654;2023-08-06T03:54:13;4.60;;;1.20;;
74660;SDS011;63191;39.566;2.654;2023-08-06T03:56:39;5.10;;;1.20;;
74660;SDS011;63191;39.566;2.654;2023-08-06T03:59:04;4.60;;;1.10;;
74660;SDS011;63191;39.566;2.654;2023-08-06T04:01:30;6.40;;;1.60;;
74660;SDS011;63191;39.566;2.654;2023-08-06T04:03:56;4.80;;;1.40;;
74660;SDS011;63191;39.566;2.654;2023-08-06T04:06:22;5.00;;;1.30;;
74660;SDS011;63191;39.566;2.654;2023-08-06T04:08:47;6.20;;;1.30;;
74660;SDS011;63191;39.566;2.654;2023-08-06T04:11:13;4.20;;;1.00;;
74660;SDS011;63191;39.566;2.654;2023-08-06T04:13:42;4.40;;;1.10;;
74660;SDS011;63191;39.566;2.654;2023-08-06T04:16:09;4.30;;;0.80;;
74660;SDS011;63191;39.566;2.654;2023-08-06T04:18:35;3.40;;;1.20;;
74660;SDS011;63191;39.566;2.654;2023-08-06T04:21:02;4.80;;;1.20;;
74660;SDS011;63191;39.566;2.654;2023-08-06T04:23:28;5.30;;;1.10;;
74660;SDS011;63191;39.566;2.654;2023-08-06T04:25:56;4.10;;;0.90;;
74660;SDS011;63191;39.566;2.654;2023-08-06T04:28:23;4.70;;;1.10;;
74660;SDS011;63191;39.566;2.654;2023-08-06T04:30:48;4.40;;;1.00;;
74660;SDS011;63191;39.566;2.654;2023-08-06T04:33:14;5.00;;;1.00;;
74660;SDS011;63191;39.566;2.654;2023-08-06T04:35:40;4.20;;;0.90;;
74660;SDS011;63191;39.566;2.654;2023-08-06T04:38:06;4.30;;;1.20;;
74660;SDS011;63191;39.566;2.654;2023-08-06T04:40:35;4.20;;;1.00;;
74660;SDS011;63191;39.566;2.654;2023-08-06T04:43:02;4.20;;;1.10;;
74660;SDS011;63191;39.566;2.654;2023-08-06T04:45:28;6.00;;;1.10;;
74660;SDS011;63191;39.566;2.654;2023-08-06T04:47:54;4.70;;;1.10;;
74660;SDS011;63191;39.566;2.654;2023-08-06T04:50:20;6.30;;;1.30;;
74660;SDS011;63191;39.566;2.654;2023-08-06T04:52:46;4.60;;;1.20;;
74660;SDS011;63191;39.566;2.654;2023-08-06T04:55:11;4.10;;;1.20;;
74660;SDS011;63191;39.566;2.654;2023-08-06T04:57:37;6.70;;;1.40;;
74660;SDS011;63191;39.566;2.654;2023-08-06T05:00:03;5.70;;;1.50;;
74660;SDS011;63191;39.566;2.654;2023-08-06T05:02:30;4.00;;;1.30;;
74660;SDS011;63191;39.566;2.654;2023-08-06T05:04:58;4.50;;;1.30;;
74660;SDS011;63191;39.566;2.654;2023-08-06T05:07:24;5.70;;;1.20;;
74660;SDS011;63191;39.566;2.654;2023-08-06T05:09:49;4.60;;;1.40;;
74660;SDS011;63191;39.566;2.654;2023-08-06T05:12:15;5.20;;;1.50;;
74660;SDS011;63191;39.566;2.654;2023-08-06T05:14:41;3.90;;;1.20;;
74660;SDS011;63191;39.566;2.654;2023-08-06T05:17:06;5.70;;;1.70;;
74660;SDS011;63191;39.566;2.654;2023-08-06T05:19:32;6.20;;;1.70;;
74660;SDS011;63191;39.566;2.654;2023-08-06T05:21:58;5.40;;;1.70;;
74660;SDS011;63191;39.566;2.654;2023-08-06T05:24:24;6.90;;;1.60;;
74660;SDS011;63191;39.566;2.654;2023-08-06T05:26:49;7.50;;;1.70;;
74660;SDS011;63191;39.566;2.654;2023-08-06T05:29:16;5.00;;;1.50;;
74660;SDS011;63191;39.566;2.654;2023-08-06T05:31:42;5.30;;;1.80;;
74660;SDS011;63191;39.566;2.654;2023-08-06T05:34:08;4.80;;;1.40;;
74660;SDS011;63191;39.566;2.654;2023-08-06T05:36:34;4.90;;;1.40;;
74660;SDS011;63191;39.566;2.654;2023-08-06T05:39:00;6.10;;;1.50;;
74660;SDS011;63191;39.566;2.654;2023-08-06T05:41:26;6.40;;;1.60;;
74660;SDS011;63191;39.566;2.654;2023-08-06T05:43:51;6.60;;;1.70;;
74660;SDS011;63191;39.566;2.654;2023-08-06T05:46:17;6.40;;;1.70;;
74660;SDS011;63191;39.566;2.654;2023-08-06T05:48:43;6.30;;;1.60;;
74660;SDS011;63191;39.566;2.654;2023-08-06T05:51:08;6.10;;;1.40;;
74660;SDS011;63191;39.566;2.654;2023-08-06T05:53:34;6.20;;;1.60;;
74660;SDS011;63191;39.566;2.654;2023-08-06T05:56:00;7.70;;;1.60;;
74660;SDS011;63191;39.566;2.654;2023-08-06T05:58:25;6.90;;;1.40;;
74660;SDS011;63191;39.566;2.654;2023-08-06T06:00:54;4.70;;;1.30;;
74660;SDS011;63191;39.566;2.654;2023-08-06T06:03:20;5.10;;;1.40;;
74660;SDS011;63191;39.566;2.654;2023-08-06T06:05:45;5.70;;;1.10;;
74660;SDS011;63191;39.566;2.654;2023-08-06T06:08:11;5.20;;;1.20;;
74660;SDS011;63191;39.566;2.654;2023-08-06T06:10:37;5.40;;;1.20;;
74660;SDS011;63191;39.566;2.654;2023-08-06T06:13:03;6.00;;;1.30;;
74660;SDS011;63191;39.566;2.654;2023-08-06T06:15:28;5.50;;;1.40;;
74660;SDS011;63191;39.566;2.654;2023-08-06T06:17:54;8.00;;;1.60;;
74660;SDS011;63191;39.566;2.654;2023-08-06T06:20:20;8.90;;;2.90;;
74660;SDS011;63191;39.566;2.654;2023-08-06T06:22:45;7.60;;;1.80;;
74660;SDS011;63191;39.566;2.654;2023-08-06T06:25:11;7.30;;;1.90;;
74660;SDS011;63191;39.566;2.654;2023-08-06T06:27:37;6.10;;;1.80;;
74660;SDS011;63191;39.566;2.654;2023-08-06T06:30:03;5.20;;;1.60;;
74660;SDS011;63191;39.566;2.654;2023-08-06T06:32:29;6.50;;;1.30;;
74660;SDS011;63191;39.566;2.654;2023-08-06T06:34:55;4.80;;;1.60;;
74660;SDS011;63191;39.566;2.654;2023-08-06T06:37:20;6.00;;;1.50;;
74660;SDS011;63191;39.566;2.654;2023-08-06T06:39:46;4.90;;;1.60;;
74660;SDS011;63191;39.566;2.654;2023-08-06T06:42:12;9.00;;;1.90;;
74660;SDS011;63191;39.566;2.654;2023-08-06T06:44:37;7.40;;;1.70;;
74660;SDS011;63191;39.566;2.654;2023-08-06T06:47:03;6.20;;;1.50;;
74660;SDS011;63191;39.566;2.654;2023-08-06T06:49:29;6.50;;;1.60;;
74660;SDS011;63191;39.566;2.654;2023-08-06T06:51:55;7.40;;;1.90;;
74660;SDS011;63191;39.566;2.654;2023-08-06T06:54:21;4.80;;;1.50;;
74660;SDS011;63191;39.566;2.654;2023-08-06T06:56:46;5.20;;;1.70;;
74660;SDS011;63191;39.566;2.654;2023-08-06T06:59:12;6.40;;;1.70;;
74660;SDS011;63191;39.566;2.654;2023-08-06T07:01:38;6.20;;;1.50;;
74660;SDS011;63191;39.566;2.654;2023-08-06T07:04:03;6.70;;;1.40;;
74660;SDS011;63191;39.566;2.654;2023-08-06T07:06:31;5.60;;;1.40;;
74660;SDS011;63191;39.566;2.654;2023-08-06T07:08:57;5.90;;;1.50;;
74660;SDS011;63191;39.566;2.654;2023-08-06T07:11:22;5.00;;;1.10;;
74660;SDS011;63191;39.566;2.654;2023-08-06T07:13:49;6.70;;;1.30;;
74660;SDS011;63191;39.566;2.654;2023-08-06T07:16:15;5.90;;;1.30;;
74660;SDS011;63191;39.566;2.654;2023-08-06T07:18:41;4.90;;;1.30;;
74660;SDS011;63191;39.566;2.654;2023-08-06T07:21:06;6.70;;;1.10;;
74660;SDS011;63191;39.566;2.654;2023-08-06T07:23:32;3.50;;;0.80;;
74660;SDS011;63191;39.566;2.654;2023-08-06T07:25:58;4.80;;;1.10;;
74660;SDS011;63191;39.566;2.654;2023-08-06T07:28:24;7.10;;;1.20;;
74660;SDS011;63191;39.566;2.654;2023-08-06T07:30:50;4.90;;;1.10;;
74660;SDS011;63191;39.566;2.654;2023-08-06T07:33:16;4.50;;;1.00;;
74660;SDS011;63191;39.566;2.654;2023-08-06T07:35:42;6.60;;;1.00;;
74660;SDS011;63191;39.566;2.654;2023-08-06T07:38:08;4.10;;;0.90;;
74660;SDS011;63191;39.566;2.654;2023-08-06T07:40:35;5.70;;;1.10;;
74660;SDS011;63191;39.566;2.654;2023-08-06T07:43:02;6.00;;;1.10;;
74660;SDS011;63191;39.566;2.654;2023-08-06T07:45:33;6.10;;;1.00;;
74660;SDS011;63191;39.566;2.654;2023-08-06T07:48:00;6.10;;;1.20;;
74660;SDS011;63191;39.566;2.654;2023-08-06T07:50:25;5.90;;;1.30;;
74660;SDS011;63191;39.566;2.654;2023-08-06T07:52:51;5.80;;;1.20;;
74660;SDS011;63191;39.566;2.654;2023-08-06T07:55:17;4.40;;;1.00;;
74660;SDS011;63191;39.566;2.654;2023-08-06T07:57:43;5.30;;;1.10;;
74660;SDS011;63191;39.566;2.654;2023-08-06T08:00:09;4.20;;;1.10;;
74660;SDS011;63191;39.566;2.654;2023-08-06T08:02:35;5.30;;;1.10;;
74660;SDS011;63191;39.566;2.654;2023-08-06T08:05:01;5.80;;;1.10;;
74660;SDS011;63191;39.566;2.654;2023-08-06T08:07:26;4.50;;;1.00;;
74660;SDS011;63191;39.566;2.654;2023-08-06T08:09:55;5.90;;;1.20;;
74660;SDS011;63191;39.566;2.654;2023-08-06T08:12:22;4.60;;;1.30;;
74660;SDS011;63191;39.566;2.654;2023-08-06T08:14:48;4.20;;;0.90;;
74660;SDS011;63191;39.566;2.654;2023-08-06T08:17:14;4.10;;;1.10;;
74660;SDS011;63191;39.566;2.654;2023-08-06T08:19:40;5.80;;;1.30;;
74660;SDS011;63191;39.566;2.654;2023-08-06T08:22:06;5.80;;;1.30;;
74660;SDS011;63191;39.566;2.654;2023-08-06T08:24:32;4.20;;;1.10;;
74660;SDS011;63191;39.566;2.654;2023-08-06T08:26:58;4.30;;;1.10;;
74660;SDS011;63191;39.566;2.654;2023-08-06T08:29:24;5.40;;;1.00;;
74660;SDS011;63191;39.566;2.654;2023-08-06T08:31:49;4.20;;;1.00;;
74660;SDS011;63191;39.566;2.654;2023-08-06T08:34:16;5.20;;;1.10;;
74660;SDS011;63191;39.566;2.654;2023-08-06T08:36:42;4.90;;;1.20;;
74660;SDS011;63191;39.566;2.654;2023-08-06T08:39:08;3.50;;;0.80;;
74660;SDS011;63191;39.566;2.654;2023-08-06T08:41:36;5.10;;;1.20;;
74660;SDS011;63191;39.566;2.654;2023-08-06T08:44:02;4.50;;;1.10;;
74660;SDS011;63191;39.566;2.654;2023-08-06T08:46:30;4.10;;;1.20;;
74660;SDS011;63191;39.566;2.654;2023-08-06T08:48:59;4.80;;;1.30;;
74660;SDS011;63191;39.566;2.654;2023-08-06T08:51:27;4.70;;;1.10;;
74660;SDS011;63191;39.566;2.654;2023-08-06T08:53:53;4.10;;;1.10;;
74660;SDS011;63191;39.566;2.654;2023-08-06T08:56:21;5.80;;;1.40;;
74660;SDS011;63191;39.566;2.654;2023-08-06T08:58:47;5.40;;;1.30;;
74660;SDS011;63191;39.566;2.654;2023-08-06T09:01:15;6.40;;;1.40;;
74660;SDS011;63191;39.566;2.654;2023-08-06T09:03:43;3.80;;;1.20;;
74660;SDS011;63191;39.566;2.654;2023-08-06T09:06:11;7.00;;;1.40;;
74660;SDS011;63191;39.566;2.654;2023-08-06T09:09:01;5.30;;;1.30;;
74660;SDS011;63191;39.566;2.654;2023-08-06T09:11:36;6.90;;;1.70;;
74660;SDS011;63191;39.566;2.654;2023-08-06T09:14:06;7.60;;;1.30;;
74660;SDS011;63191;39.566;2.654;2023-08-06T09:16:37;6.10;;;1.30;;
74660;SDS011;63191;39.566;2.654;2023-08-06T09:19:13;5.10;;;1.20;;
74660;SDS011;63191;39.566;2.654;2023-08-06T09:21:41;6.40;;;1.60;;
74660;SDS011;63191;39.566;2.654;2023-08-06T09:24:09;3.90;;;1.10;;
74660;SDS011;63191;39.566;2.654;2023-08-06T09:26:40;4.30;;;1.30;;
74660;SDS011;63191;39.566;2.654;2023-08-06T09:29:08;5.20;;;1.40;;
74660;SDS011;63191;39.566;2.654;2023-08-06T09:34:16;4.90;;;1.30;;
74660;SDS011;63191;39.566;2.654;2023-08-06T09:36:53;6.10;;;1.60;;
74660;SDS011;63191;39.566;2.654;2023-08-06T09:39:21;5.20;;;1.20;;
74660;SDS011;63191;39.566;2.654;2023-08-06T09:41:58;4.90;;;1.20;;
74660;SDS011;63191;39.566;2.654;2023-08-06T09:44:28;6.00;;;1.50;;
74660;SDS011;63191;39.566;2.654;2023-08-06T09:47:03;4.20;;;1.20;;
74660;SDS011;63191;39.566;2.654;2023-08-06T09:51:58;5.70;;;1.90;;
74660;SDS011;63191;39.566;2.654;2023-08-06T09:54:26;5.20;;;1.30;;
74660;SDS011;63191;39.566;2.654;2023-08-06T09:56:54;4.70;;;1.40;;
74660;SDS011;63191;39.566;2.654;2023-08-06T09:59:20;4.70;;;1.30;;
74660;SDS011;63191;39.566;2.654;2023-08-06T10:01:46;6.80;;;1.40;;
74660;SDS011;63191;39.566;2.654;2023-08-06T10:04:14;6.10;;;1.40;;
74660;SDS011;63191;39.566;2.654;2023-08-06T10:06:46;4.80;;;1.60;;
74660;SDS011;63191;39.566;2.654;2023-08-06T10:09:15;5.50;;;1.80;;
74660;SDS011;63191;39.566;2.654;2023-08-06T10:11:42;7.20;;;1.70;;
74660;SDS011;63191;39.566;2.654;2023-08-06T10:16:41;6.50;;;1.90;;
74660;SDS011;63191;39.566;2.654;2023-08-06T10:19:10;5.60;;;1.40;;
74660;SDS011;63191;39.566;2.654;2023-08-06T10:21:40;5.00;;;1.40;;
74660;SDS011;63191;39.566;2.654;2023-08-06T10:24:09;4.70;;;1.40;;
74660;SDS011;63191;39.566;2.654;2023-08-06T10:26:36;5.60;;;1.80;;
74660;SDS011;63191;39.566;2.654;2023-08-06T10:29:37;7.40;;;1.90;;
74660;SDS011;63191;39.566;2.654;2023-08-06T10:32:03;5.70;;;1.80;;
74660;SDS011;63191;39.566;2.654;2023-08-06T10:34:57;7.50;;;1.70;;
74660;SDS011;63191;39.566;2.654;2023-08-06T10:37:35;6.40;;;1.60;;
74660;SDS011;63191;39.566;2.654;2023-08-06T10:40:02;5.20;;;1.60;;
74660;SDS011;63191;39.566;2.654;2023-08-06T10:42:29;6.10;;;1.80;;
74660;SDS011;63191;39.566;2.654;2023-08-06T10:45:14;5.40;;;1.80;;
74660;SDS011;63191;39.566;2.654;2023-08-06T10:47:42;6.90;;;1.90;;
74660;SDS011;63191;39.566;2.654;2023-08-06T10:50:15;6.40;;;2.00;;
74660;SDS011;63191;39.566;2.654;2023-08-06T10:52:46;5.00;;;1.60;;
74660;SDS011;63191;39.566;2.654;2023-08-06T10:55:31;8.60;;;1.60;;
74660;SDS011;63191;39.566;2.654;2023-08-06T10:57:57;5.50;;;1.40;;
74660;SDS011;63191;39.566;2.654;2023-08-06T11:00:23;6.20;;;1.80;;
74660;SDS011;63191;39.566;2.654;2023-08-06T11:02:51;7.40;;;1.80;;
74660;SDS011;63191;39.566;2.654;2023-08-06T11:05:18;7.90;;;2.00;;
74660;SDS011;63191;39.566;2.654;2023-08-06T11:07:44;5.50;;;1.60;;
74660;SDS011;63191;39.566;2.654;2023-08-06T11:10:14;7.60;;;1.60;;
74660;SDS011;63191;39.566;2.654;2023-08-06T11:12:40;6.50;;;1.80;;
74660;SDS011;63191;39.566;2.654;2023-08-06T11:15:06;8.10;;;1.70;;
74660;SDS011;63191;39.566;2.654;2023-08-06T11:17:33;6.30;;;1.80;;
74660;SDS011;63191;39.566;2.654;2023-08-06T11:20:04;5.60;;;1.70;;
74660;SDS011;63191;39.566;2.654;2023-08-06T11:22:30;5.80;;;1.70;;
74660;SDS011;63191;39.566;2.654;2023-08-06T11:24:56;4.90;;;1.60;;
74660;SDS011;63191;39.566;2.654;2023-08-06T11:27:22;6.50;;;1.80;;
74660;SDS011;63191;39.566;2.654;2023-08-06T11:29:48;8.40;;;2.10;;
74660;SDS011;63191;39.566;2.654;2023-08-06T11:32:14;7.70;;;2.00;;
74660;SDS011;63191;39.566;2.654;2023-08-06T11:34:40;6.20;;;1.80;;
74660;SDS011;63191;39.566;2.654;2023-08-06T11:37:07;8.60;;;1.70;;
74660;SDS011;63191;39.566;2.654;2023-08-06T11:39:36;6.00;;;1.80;;
74660;SDS011;63191;39.566;2.654;2023-08-06T11:42:06;8.10;;;1.70;;
74660;SDS011;63191;39.566;2.654;2023-08-06T11:44:35;5.30;;;1.50;;
74660;SDS011;63191;39.566;2.654;2023-08-06T11:47:03;6.90;;;1.70;;
74660;SDS011;63191;39.566;2.654;2023-08-06T11:49:43;9.70;;;1.80;;
74660;SDS011;63191;39.566;2.654;2023-08-06T11:52:21;6.30;;;1.80;;
74660;SDS011;63191;39.566;2.654;2023-08-06T11:55:07;6.20;;;1.60;;
74660;SDS011;63191;39.566;2.654;2023-08-06T11:57:39;6.50;;;1.80;;
74660;SDS011;63191;39.566;2.654;2023-08-06T12:00:09;9.90;;;2.10;;
74660;SDS011;63191;39.566;2.654;2023-08-06T12:02:39;6.30;;;1.90;;
74660;SDS011;63191;39.566;2.654;2023-08-06T12:05:11;4.80;;;2.10;;
74660;SDS011;63191;39.566;2.654;2023-08-06T12:07:44;6.20;;;1.80;;
74660;SDS011;63191;39.566;2.654;2023-08-06T12:10:13;5.30;;;2.20;;
74660;SDS011;63191;39.566;2.654;2023-08-06T12:12:39;7.30;;;2.50;;
74660;SDS011;63191;39.566;2.654;2023-08-06T12:15:07;5.50;;;2.60;;
74660;SDS011;63191;39.566;2.654;2023-08-06T12:17:34;6.50;;;3.00;;
74660;SDS011;63191;39.566;2.654;2023-08-06T12:20:00;7.00;;;3.50;;
74660;SDS011;63191;39.566;2.654;2023-08-06T12:22:26;7.70;;;3.90;;
74660;SDS011;63191;39.566;2.654;2023-08-06T12:24:52;9.30;;;4.50;;
74660;SDS011;63191;39.566;2.654;2023-08-06T12:27:18;8.00;;;4.90;;
74660;SDS011;63191;39.566;2.654;2023-08-06T12:29:45;7.70;;;6.30;;
74660;SDS011;63191;39.566;2.654;2023-08-06T12:32:13;7.50;;;6.50;;
74660;SDS011;63191;39.566;2.654;2023-08-06T12:34:41;8.80;;;7.10;;
74660;SDS011;63191;39.566;2.654;2023-08-06T12:37:08;9.90;;;9.00;;
74660;SDS011;63191;39.566;2.654;2023-08-06T12:39:35;11.30;;;10.30;;
74660;SDS011;63191;39.566;2.654;2023-08-06T12:42:02;13.30;;;12.20;;
74660;SDS011;63191;39.566;2.654;2023-08-06T12:44:29;14.90;;;13.70;;
74660;SDS011;63191;39.566;2.654;2023-08-06T12:46:55;18.40;;;17.20;;
74660;SDS011;63191;39.566;2.654;2023-08-06T12:49:21;21.60;;;20.10;;
74660;SDS011;63191;39.566;2.654;2023-08-06T12:51:50;24.80;;;23.20;;
74660;SDS011;63191;39.566;2.654;2023-08-06T12:54:17;27.40;;;25.80;;
74660;SDS011;63191;39.566;2.654;2023-08-06T12:56:44;31.60;;;29.80;;
74660;SDS011;63191;39.566;2.654;2023-08-06T12:59:11;34.40;;;32.40;;
74660;SDS011;63191;39.566;2.654;2023-08-06T13:01:38;37.20;;;35.10;;
74660;SDS011;63191;39.566;2.654;2023-08-06T13:04:03;41.80;;;39.50;;
74660;SDS011;63191;39.566;2.654;2023-08-06T13:06:29;45.70;;;43.30;;
74660;SDS011;63191;39.566;2.654;2023-08-06T13:08:56;45.20;;;42.80;;
74660;SDS011;63191;39.566;2.654;2023-08-06T13:11:23;48.20;;;45.70;;
74660;SDS011;63191;39.566;2.654;2023-08-06T13:13:48;52.80;;;50.10;;
74660;SDS011;63191;39.566;2.654;2023-08-06T13:16:15;53.90;;;51.00;;
74660;SDS011;63191;39.566;2.654;2023-08-06T13:18:40;57.20;;;54.30;;
74660;SDS011;63191;39.566;2.654;2023-08-06T13:21:06;61.80;;;58.60;;
74660;SDS011;63191;39.566;2.654;2023-08-06T13:23:32;60.30;;;57.20;;
74660;SDS011;63191;39.566;2.654;2023-08-06T13:25:57;62.80;;;59.60;;
74660;SDS011;63191;39.566;2.654;2023-08-06T13:28:24;71.30;;;67.70;;
74660;SDS011;63191;39.566;2.654;2023-08-06T13:30:49;73.90;;;70.30;;
74660;SDS011;63191;39.566;2.654;2023-08-06T13:33:16;74.10;;;70.60;;
74660;SDS011;63191;39.566;2.654;2023-08-06T13:35:41;76.30;;;72.60;;
74660;SDS011;63191;39.566;2.654;2023-08-06T13:38:07;80.10;;;76.30;;
74660;SDS011;63191;39.566;2.654;2023-08-06T13:40:33;78.70;;;74.90;;
74660;SDS011;63191;39.566;2.654;2023-08-06T13:43:00;80.90;;;77.00;;
74660;SDS011;63191;39.566;2.654;2023-08-06T13:45:25;75.80;;;72.20;;
74660;SDS011;63191;39.566;2.654;2023-08-06T13:47:51;72.90;;;69.40;;
74660;SDS011;63191;39.566;2.654;2023-08-06T13:50:17;70.40;;;67.00;;
74660;SDS011;63191;39.566;2.654;2023-08-06T13:52:44;65.40;;;62.20;;
74660;SDS011;63191;39.566;2.654;2023-08-06T13:55:10;68.10;;;64.80;;
74660;SDS011;63191;39.566;2.654;2023-08-06T13:57:35;68.40;;;65.00;;
74660;SDS011;63191;39.566;2.654;2023-08-06T14:00:01;67.30;;;64.00;;
74660;SDS011;63191;39.566;2.654;2023-08-06T14:02:28;66.00;;;62.80;;
74660;SDS011;63191;39.566;2.654;2023-08-06T14:04:54;69.30;;;66.00;;
74660;SDS011;63191;39.566;2.654;2023-08-06T14:07:20;72.90;;;69.30;;
74660;SDS011;63191;39.566;2.654;2023-08-06T14:09:46;69.20;;;65.90;;
74660;SDS011;63191;39.566;2.654;2023-08-06T14:12:13;68.60;;;65.10;;
74660;SDS011;63191;39.566;2.654;2023-08-06T14:14:39;64.70;;;61.50;;
74660;SDS011;63191;39.566;2.654;2023-08-06T14:17:05;67.00;;;63.70;;
74660;SDS011;63191;39.566;2.654;2023-08-06T14:19:31;65.90;;;62.50;;
74660;SDS011;63191;39.566;2.654;2023-08-06T14:21:57;62.80;;;59.70;;
74660;SDS011;63191;39.566;2.654;2023-08-06T14:24:22;61.50;;;58.40;;
74660;SDS011;63191;39.566;2.654;2023-08-06T14:26:48;58.60;;;55.70;;
74660;SDS011;63191;39.566;2.654;2023-08-06T14:29:14;57.10;;;54.20;;
74660;SDS011;63191;39.566;2.654;2023-08-06T14:31:40;58.90;;;55.90;;
74660;SDS011;63191;39.566;2.654;2023-08-06T14:34:06;57.10;;;54.40;;
74660;SDS011;63191;39.566;2.654;2023-08-06T14:36:32;54.30;;;51.50;;
74660;SDS011;63191;39.566;2.654;2023-08-06T14:38:58;56.50;;;53.40;;
74660;SDS011;63191;39.566;2.654;2023-08-06T14:41:24;49.90;;;47.30;;
74660;SDS011;63191;39.566;2.654;2023-08-06T14:43:50;49.30;;;46.80;;
74660;SDS011;63191;39.566;2.654;2023-08-06T14:46:16;48.30;;;45.80;;
74660;SDS011;63191;39.566;2.654;2023-08-06T14:48:42;47.70;;;45.30;;
74660;SDS011;63191;39.566;2.654;2023-08-06T14:51:08;48.90;;;46.20;;
74660;SDS011;63191;39.566;2.654;2023-08-06T14:53:34;46.60;;;44.10;;
74660;SDS011;63191;39.566;2.654;2023-08-06T14:56:00;47.40;;;44.90;;
74660;SDS011;63191;39.566;2.654;2023-08-06T14:58:25;49.70;;;47.30;;